createdAt,value
2022-10-17T00:01:59.167Z,44.00
2022-10-17T00:04:27.824Z,48.33
2022-10-17T00:06:57.867Z,44.40
2022-10-17T00:09:26.582Z,43.23
2022-10-17T00:11:55.276Z,45.70
2022-10-17T00:14:23.954Z,44.20
2022-10-17T00:16:52.550Z,48.27
2022-10-17T00:19:21.171Z,46.03
2022-10-17T00:21:51.226Z,50.53
2022-10-17T00:24:21.220Z,54.67
2022-10-17T00:26:49.946Z,44.33
2022-10-17T00:29:18.575Z,47.60
2022-10-17T00:31:47.567Z,46.50
2022-10-17T00:34:16.405Z,49.13
2022-10-17T00:36:45.086Z,56.63
2022-10-17T00:39:13.852Z,60.10
2022-10-17T00:41:43.927Z,55.90
2022-10-17T00:44:47.735Z,57.90
2022-10-17T00:47:18.848Z,51.70
2022-10-17T00:49:48.668Z,46.73
2022-10-17T00:52:19.840Z,49.77
2022-10-17T00:54:52.881Z,45.27
2022-10-17T00:57:23.513Z,43.47
2022-10-17T00:59:56.703Z,45.23
2022-10-17T01:02:25.915Z,42.23
2022-10-17T01:04:56.476Z,47.93
2022-10-17T01:07:25.253Z,54.80
2022-10-17T01:09:54.146Z,66.33
2022-10-17T01:12:26.793Z,64.03
2022-10-17T01:15:07.044Z,53.33
2022-10-17T01:17:42.457Z,52.03
2022-10-17T01:20:49.053Z,54.03
2022-10-17T01:23:39.875Z,42.77
2022-10-17T01:26:19.020Z,39.10
2022-10-17T01:29:37.119Z,41.07
2022-10-17T01:32:15.225Z,40.17
2022-10-17T01:34:50.284Z,41.40
2022-10-17T01:37:23.438Z,38.50
2022-10-17T01:39:55.692Z,43.40
2022-10-17T01:42:29.127Z,45.17
2022-10-17T01:45:01.539Z,51.13
2022-10-17T01:47:35.143Z,65.27
2022-10-17T01:50:09.027Z,63.90
2022-10-17T01:52:42.981Z,53.27
2022-10-17T01:55:16.148Z,52.60
2022-10-17T01:57:48.018Z,51.30
2022-10-17T02:00:20.515Z,53.93
2022-10-17T02:02:54.138Z,58.70
2022-10-17T02:05:27.881Z,59.83
2022-10-17T02:07:56.792Z,63.33
2022-10-17T02:10:34.617Z,62.27
2022-10-17T02:13:11.329Z,53.00
2022-10-17T02:16:11.543Z,56.27
2022-10-17T02:19:12.259Z,47.57
2022-10-17T02:21:49.818Z,43.33
2022-10-17T02:24:27.092Z,41.03
2022-10-17T02:27:04.818Z,41.80
2022-10-17T02:29:38.098Z,41.47
2022-10-17T02:32:10.246Z,42.10
2022-10-17T02:34:44.858Z,40.93
2022-10-17T02:37:17.842Z,43.37
2022-10-17T02:39:46.983Z,42.53
2022-10-17T02:42:16.945Z,45.97
2022-10-17T02:44:47.202Z,52.20
2022-10-17T02:47:21.049Z,56.23
2022-10-17T02:49:53.903Z,55.80
2022-10-17T02:52:29.309Z,51.50
2022-10-17T02:55:02.352Z,44.97
2022-10-17T02:57:36.306Z,54.10
2022-10-17T03:00:09.527Z,63.13
2022-10-17T03:02:42.965Z,66.00
2022-10-17T03:05:14.784Z,61.00
2022-10-17T03:07:43.420Z,62.13
2022-10-17T03:10:12.834Z,56.90
2022-10-17T03:12:41.435Z,61.07
2022-10-17T03:15:11.149Z,63.50
2022-10-17T03:17:40.243Z,58.60
2022-10-17T03:20:09.589Z,59.17
2022-10-17T03:22:39.755Z,59.23
2022-10-17T03:25:08.995Z,56.87
2022-10-17T03:27:37.850Z,52.60
2022-10-17T03:30:07.560Z,53.10
2022-10-17T03:32:36.471Z,57.63
2022-10-17T03:35:08.399Z,56.47
2022-10-17T03:37:43.691Z,58.53
2022-10-17T03:40:12.886Z,61.25
2022-10-17T03:42:41.578Z,51.03
2022-10-17T03:45:11.183Z,63.63
2022-10-17T03:47:39.968Z,54.13
2022-10-17T03:50:09.376Z,45.70
2022-10-17T03:52:38.540Z,43.97
2022-10-17T03:55:09.470Z,42.13
2022-10-17T03:57:41.060Z,43.27
2022-10-17T04:00:13.285Z,44.30
2022-10-17T04:02:41.904Z,45.33
2022-10-17T04:05:11.148Z,46.97
2022-10-17T04:07:39.773Z,97.53
2022-10-17T04:10:11.142Z,42.70
2022-10-17T04:12:39.725Z,43.30
2022-10-17T04:15:09.692Z,42.93
2022-10-17T04:17:38.480Z,50.50
2022-10-17T04:20:08.099Z,52.37
2022-10-17T04:22:40.611Z,54.27
2022-10-17T04:25:11.214Z,53.33
2022-10-17T04:27:39.811Z,51.63
2022-10-17T04:30:09.501Z,50.53
2022-10-17T04:32:39.434Z,47.90
2022-10-17T04:35:09.052Z,62.50
2022-10-17T04:37:42.471Z,39.07
2022-10-17T04:40:13.283Z,50.27
2022-10-17T04:42:42.373Z,50.70
2022-10-17T04:45:11.842Z,47.72
2022-10-17T04:47:41.201Z,46.50
2022-10-17T04:50:10.826Z,49.13
2022-10-17T04:52:41.769Z,47.53
2022-10-17T04:55:13.598Z,54.37
2022-10-17T04:57:42.521Z,53.50
2022-10-17T05:00:13.482Z,54.77
2022-10-17T05:02:49.898Z,53.67
2022-10-17T05:05:18.708Z,58.53
2022-10-17T05:07:47.433Z,47.27
2022-10-17T05:10:21.292Z,46.70
2022-10-17T05:12:50.515Z,50.33
2022-10-17T05:15:19.514Z,54.13
2022-10-17T05:17:48.177Z,50.47
2022-10-17T05:20:16.986Z,50.53
2022-10-17T05:22:48.799Z,56.00
2022-10-17T05:25:19.246Z,60.17
2022-10-17T05:27:48.798Z,53.87
2022-10-17T05:30:18.292Z,43.33
2022-10-17T05:32:46.970Z,39.53
2022-10-17T05:35:15.796Z,42.43
2022-10-17T05:37:44.591Z,44.60
2022-10-17T05:40:13.861Z,44.47
2022-10-17T05:42:48.189Z,43.47
2022-10-17T05:45:17.682Z,44.50
2022-10-17T05:47:46.633Z,45.90
2022-10-17T05:50:15.250Z,46.77
2022-10-17T05:52:46.426Z,48.50
2022-10-17T05:55:15.988Z,53.73
2022-10-17T05:57:46.469Z,53.03
2022-10-17T06:00:16.102Z,54.83
2022-10-17T06:02:46.277Z,56.00
2022-10-17T06:05:15.899Z,44.60
2022-10-17T06:07:44.712Z,39.17
2022-10-17T06:10:16.563Z,42.87
2022-10-17T06:12:47.057Z,40.43
2022-10-17T06:15:15.711Z,40.97
2022-10-17T06:17:44.525Z,41.80
2022-10-17T06:20:13.160Z,44.00
2022-10-17T06:22:41.798Z,42.17
2022-10-17T06:25:11.262Z,43.30
2022-10-17T06:27:40.077Z,40.43
2022-10-17T06:30:11.170Z,41.10
2022-10-17T06:32:39.943Z,39.07
2022-10-17T06:35:09.503Z,40.57
2022-10-17T06:37:38.396Z,38.20
2022-10-17T06:40:10.715Z,36.53
2022-10-17T06:42:40.011Z,38.37
2022-10-17T06:45:11.443Z,37.47
2022-10-17T06:47:40.070Z,35.07
2022-10-17T06:50:09.395Z,37.70
2022-10-17T06:52:38.225Z,36.17
2022-10-17T06:55:08.124Z,35.70
2022-10-17T06:57:36.818Z,34.80
2022-10-17T07:00:07.316Z,33.70
2022-10-17T07:02:37.411Z,39.10
2022-10-17T07:05:06.634Z,37.80
2022-10-17T07:07:36.835Z,38.17
2022-10-17T07:10:08.974Z,40.60
2022-10-17T07:12:37.770Z,41.43
2022-10-17T07:15:07.297Z,40.67
2022-10-17T07:17:37.260Z,48.17
2022-10-17T07:20:06.464Z,41.83
2022-10-17T07:22:35.258Z,45.27
2022-10-17T07:25:03.868Z,39.07
2022-10-17T07:27:32.768Z,36.97
2022-10-17T07:30:01.735Z,36.93
2022-10-17T07:32:30.657Z,38.87
2022-10-17T07:35:00.856Z,37.50
2022-10-17T07:37:30.736Z,38.07
2022-10-17T07:39:59.795Z,41.73
2022-10-17T07:42:28.988Z,42.70
2022-10-17T07:44:57.813Z,42.30
2022-10-17T07:47:26.966Z,45.43
2022-10-17T07:49:55.854Z,42.87
2022-10-17T07:52:25.977Z,44.47
2022-10-17T07:54:54.615Z,46.20
2022-10-17T07:57:23.306Z,41.30
2022-10-17T07:59:52.230Z,42.07
2022-10-17T08:02:24.173Z,40.37
2022-10-17T08:04:53.027Z,176.80
2022-10-17T08:07:26.857Z,50.07
2022-10-17T08:09:59.370Z,44.53
2022-10-17T08:12:28.916Z,44.40
2022-10-17T08:14:57.869Z,44.17
2022-10-17T08:17:26.632Z,40.97
2022-10-17T08:19:56.186Z,52.33
2022-10-17T08:22:24.905Z,66.15
2022-10-17T08:24:53.882Z,71.30
2022-10-17T08:27:25.926Z,79.75
2022-10-17T08:29:55.433Z,73.68
2022-10-17T08:32:26.914Z,81.40
2022-10-17T08:34:56.872Z,85.55
2022-10-17T08:37:25.804Z,75.10
2022-10-17T08:39:54.529Z,72.13
2022-10-17T08:42:42.445Z,63.90
2022-10-17T08:45:26.155Z,62.45
2022-10-17T08:47:59.848Z,62.83
2022-10-17T08:50:36.275Z,61.45
2022-10-17T08:53:10.554Z,55.13
2022-10-17T08:55:44.543Z,64.80
2022-10-17T08:58:18.731Z,69.00
2022-10-17T09:00:53.889Z,65.83
2022-10-17T09:03:39.764Z,69.50
2022-10-17T09:06:19.040Z,60.83
2022-10-17T09:08:58.504Z,73.53
2022-10-17T09:11:42.068Z,74.57
2022-10-17T09:14:32.165Z,75.35
2022-10-17T09:17:15.899Z,69.35
2022-10-17T09:19:51.740Z,66.75
2022-10-17T09:22:24.421Z,70.83
2022-10-17T09:24:56.873Z,75.80
2022-10-17T09:27:32.933Z,83.77
2022-10-17T09:30:40.005Z,68.93
2022-10-17T09:33:23.331Z,63.72
2022-10-17T09:36:06.736Z,51.65
2022-10-17T09:38:41.900Z,54.53
2022-10-17T09:41:43.576Z,55.53
2022-10-17T09:44:23.043Z,49.65
2022-10-17T09:47:13.408Z,51.23
2022-10-17T09:49:44.001Z,61.35
2022-10-17T09:52:16.238Z,61.70
2022-10-17T09:54:48.112Z,63.90
2022-10-17T09:57:18.134Z,73.68
2022-10-17T09:59:48.911Z,74.57
2022-10-17T10:02:24.502Z,74.28
2022-10-17T10:05:04.105Z,78.93
2022-10-17T10:07:38.381Z,99.30
2022-10-17T10:10:09.483Z,93.35
2022-10-17T10:12:40.618Z,98.03
2022-10-17T10:15:34.938Z,92.15
2022-10-17T10:18:25.799Z,78.13
2022-10-17T10:21:07.526Z,83.18
2022-10-17T10:23:40.461Z,74.15
2022-10-17T10:26:24.876Z,65.88
2022-10-17T10:28:57.607Z,63.58
2022-10-17T10:31:35.448Z,53.53
2022-10-17T10:34:17.112Z,50.03
2022-10-17T10:36:59.567Z,57.80
2022-10-17T10:39:33.944Z,55.65
2022-10-17T10:42:04.683Z,50.58
2022-10-17T10:44:35.482Z,50.65
2022-10-17T10:47:17.495Z,54.30
2022-10-17T10:49:48.311Z,54.88
2022-10-17T10:52:43.804Z,57.60
2022-10-17T10:55:23.567Z,61.45
2022-10-17T10:57:56.675Z,62.72
2022-10-17T11:00:28.478Z,55.47
2022-10-17T11:03:12.609Z,69.15
2022-10-17T11:05:46.805Z,81.28
2022-10-17T11:08:25.043Z,66.85
2022-10-17T11:11:20.008Z,97.00
2022-10-17T11:13:56.763Z,110.15
2022-10-17T11:16:34.438Z,126.70
2022-10-17T11:19:14.302Z,136.57
2022-10-17T11:21:49.097Z,162.98
2022-10-17T11:24:25.095Z,148.82
2022-10-17T11:26:59.763Z,149.13
2022-10-17T11:29:32.319Z,173.85
2022-10-17T11:32:08.401Z,184.82
2022-10-17T11:34:42.517Z,172.77
2022-10-17T11:37:19.190Z,197.77
2022-10-17T11:39:53.497Z,192.77
2022-10-17T11:42:27.416Z,202.20
2022-10-17T11:45:03.338Z,193.63
2022-10-17T11:47:42.512Z,177.52
2022-10-17T11:53:20.259Z,181.48
2022-10-17T11:55:50.522Z,208.43
2022-10-17T11:58:31.370Z,206.20
2022-10-17T12:01:26.295Z,213.57
2022-10-17T12:04:18.527Z,186.88
2022-10-17T12:07:00.363Z,240.30
2022-10-17T12:09:38.818Z,266.85
2022-10-17T12:12:07.574Z,290.58
2022-10-17T12:14:41.936Z,282.00
2022-10-17T12:17:41.489Z,243.48
2022-10-17T12:20:33.208Z,290.80
2022-10-17T12:23:21.519Z,284.90
2022-10-17T12:25:54.985Z,220.23
2022-10-17T12:28:30.877Z,247.15
2022-10-17T12:31:02.562Z,228.25
2022-10-17T12:33:36.227Z,232.90
2022-10-17T12:36:47.544Z,199.95
2022-10-17T12:39:43.867Z,194.27
2022-10-17T12:42:32.149Z,585.35
2022-10-17T12:45:00.904Z,166.18
2022-10-17T12:47:38.974Z,161.38
2022-10-17T12:50:40.419Z,155.10
2022-10-17T12:53:16.992Z,163.00
2022-10-17T12:55:48.082Z,178.70
2022-10-17T12:58:18.423Z,167.43
2022-10-17T13:01:18.750Z,170.77
2022-10-17T13:03:47.242Z,163.80
2022-10-17T13:06:22.035Z,170.20
2022-10-17T13:09:01.056Z,155.68
2022-10-17T13:11:35.293Z,149.57
2022-10-17T13:14:15.839Z,124.60
2022-10-17T13:16:54.193Z,107.72
2022-10-17T13:19:24.566Z,117.72
2022-10-17T13:21:56.297Z,124.57
2022-10-17T13:24:31.303Z,127.07
2022-10-17T13:27:00.769Z,117.50
2022-10-17T13:29:33.033Z,119.90
2022-10-17T13:32:04.157Z,114.95
2022-10-17T13:34:34.424Z,103.93
2022-10-17T13:37:05.890Z,115.15
2022-10-17T13:39:56.632Z,115.63
2022-10-17T13:42:33.645Z,102.13
2022-10-17T13:45:04.180Z,112.55
2022-10-17T13:47:39.278Z,124.57
2022-10-17T13:50:26.371Z,119.85
2022-10-17T13:53:19.499Z,364.73
2022-10-17T13:56:15.804Z,168.77
2022-10-17T13:58:47.779Z,150.45
2022-10-17T14:01:19.091Z,149.77
2022-10-17T14:03:57.082Z,142.70
2022-10-17T14:06:32.288Z,158.02
2022-10-17T14:09:03.716Z,150.73
2022-10-17T14:11:36.543Z,581.85
2022-10-17T14:14:08.679Z,193.73
2022-10-17T14:16:43.404Z,168.32
2022-10-17T14:19:25.040Z,159.77
2022-10-17T14:21:57.102Z,153.15
2022-10-17T14:24:33.092Z,135.80
2022-10-17T14:27:02.077Z,150.35
2022-10-17T14:29:32.857Z,153.52
2022-10-17T14:32:09.930Z,161.63
2022-10-17T14:34:40.765Z,171.07
2022-10-17T14:37:14.343Z,168.45
2022-10-17T14:39:43.081Z,168.52
2022-10-17T14:42:21.023Z,155.15
2022-10-17T14:44:52.365Z,152.20
2022-10-17T14:47:43.111Z,123.95
2022-10-17T14:50:24.790Z,98.55
2022-10-17T14:53:08.155Z,70.32
2022-10-17T14:55:37.963Z,55.05
2022-10-17T14:58:18.311Z,50.20
2022-10-17T15:00:47.160Z,58.13
2022-10-17T15:03:19.522Z,56.60
2022-10-17T15:05:48.309Z,57.83
2022-10-17T15:08:18.370Z,58.22
2022-10-17T15:10:51.013Z,59.47
2022-10-17T15:13:29.010Z,55.38
2022-10-17T15:15:59.858Z,51.05
2022-10-17T15:18:29.920Z,58.28
2022-10-17T15:21:04.976Z,49.45
2022-10-17T15:23:42.478Z,56.15
2022-10-17T15:26:16.472Z,74.93
2022-10-17T15:28:45.591Z,248.05
2022-10-17T15:31:15.517Z,297.37
2022-10-17T15:33:46.277Z,90.85
2022-10-17T15:36:26.678Z,68.15
2022-10-17T15:38:56.865Z,82.63
2022-10-17T15:41:27.988Z,98.57
2022-10-17T15:43:56.657Z,95.07
2022-10-17T15:46:27.658Z,58.38
2022-10-17T15:48:58.402Z,51.17
2022-10-17T15:51:26.997Z,50.22
2022-10-17T15:53:55.710Z,46.10
2022-10-17T15:56:26.657Z,51.00
2022-10-17T15:58:55.564Z,64.10
2022-10-17T16:01:32.406Z,40.00
2022-10-17T16:04:02.895Z,43.60
2022-10-17T16:06:31.586Z,53.43
2022-10-17T16:09:00.735Z,51.60
2022-10-17T16:11:33.021Z,44.95
2022-10-17T16:14:04.190Z,50.70
2022-10-17T16:16:32.971Z,36.50
2022-10-17T16:19:03.571Z,38.43
2022-10-17T16:21:34.327Z,43.05
2022-10-17T16:24:03.471Z,37.47
2022-10-17T16:26:32.229Z,38.20
2022-10-17T16:29:03.152Z,39.67
2022-10-17T16:31:35.196Z,38.33
2022-10-17T16:34:06.949Z,47.47
2022-10-17T16:36:35.628Z,49.63
2022-10-17T16:39:04.447Z,46.10
2022-10-17T16:41:34.432Z,41.27
2022-10-17T16:44:05.164Z,44.87
2022-10-17T16:46:35.061Z,39.93
2022-10-17T16:49:06.304Z,40.00
2022-10-17T16:51:36.046Z,38.37
2022-10-17T16:54:05.180Z,36.40
2022-10-17T16:56:36.253Z,36.97
2022-10-17T16:59:05.515Z,36.23
2022-10-17T17:01:34.233Z,36.83
2022-10-17T17:04:04.862Z,100.03
2022-10-17T17:06:33.695Z,76.03
2022-10-17T17:09:02.408Z,48.97
2022-10-17T17:11:31.710Z,49.97
2022-10-17T17:14:01.863Z,65.93
2022-10-17T17:16:32.185Z,65.47
2022-10-17T17:19:04.614Z,67.90
2022-10-17T17:21:35.448Z,67.70
2022-10-17T17:24:05.500Z,67.03
2022-10-17T17:26:37.317Z,59.87
2022-10-17T17:29:06.597Z,52.73
2022-10-17T17:31:39.223Z,51.37
2022-10-17T17:34:07.929Z,48.30
2022-10-17T17:36:39.284Z,45.83
2022-10-17T17:39:10.066Z,45.73
2022-10-17T17:41:39.282Z,49.77
2022-10-17T17:44:12.417Z,47.40
2022-10-17T17:46:44.616Z,45.10
2022-10-17T17:49:13.758Z,43.77
2022-10-17T17:51:46.720Z,44.90
2022-10-17T17:54:16.114Z,42.30
2022-10-17T17:56:44.728Z,42.70
2022-10-17T17:59:14.713Z,41.07
2022-10-17T18:01:44.384Z,42.13
2022-10-17T18:04:17.125Z,42.93
2022-10-17T18:06:47.429Z,38.13
2022-10-17T18:09:16.111Z,42.50
2022-10-17T18:11:44.895Z,42.53
2022-10-17T18:14:14.648Z,45.47
2022-10-17T18:16:43.430Z,46.50
2022-10-17T18:19:12.796Z,45.83
2022-10-17T18:21:41.594Z,44.77
2022-10-17T18:24:12.144Z,40.30
2022-10-17T18:26:41.392Z,39.63
2022-10-17T18:29:11.950Z,42.17
2022-10-17T18:31:40.719Z,44.93
2022-10-17T18:34:09.318Z,46.13
2022-10-17T18:36:38.513Z,48.03
2022-10-17T18:39:07.452Z,43.97
2022-10-17T18:41:37.773Z,50.83
2022-10-17T18:44:06.707Z,50.70
2022-10-17T18:46:41.175Z,48.37
2022-10-17T18:49:10.214Z,50.67
2022-10-17T18:51:39.126Z,52.70
2022-10-17T18:54:13.138Z,89.53
2022-10-17T18:56:43.208Z,119.30
2022-10-17T18:59:11.820Z,55.10
2022-10-17T19:01:40.577Z,49.43
2022-10-17T19:04:09.225Z,47.03
2022-10-17T19:06:38.186Z,86.40
2022-10-17T19:09:08.890Z,57.10
2022-10-17T19:11:39.375Z,52.30
2022-10-17T19:14:14.128Z,51.00
2022-10-17T19:16:46.425Z,94.47
2022-10-17T19:19:17.416Z,56.43
2022-10-17T19:21:46.966Z,52.90
2022-10-17T19:24:17.467Z,48.73
2022-10-17T19:26:50.359Z,47.70
2022-10-17T19:29:21.470Z,45.63
2022-10-17T19:31:50.530Z,44.63
2022-10-17T19:34:20.029Z,47.37
2022-10-17T19:36:49.111Z,42.13
2022-10-17T19:39:19.006Z,50.23
2022-10-17T19:41:49.811Z,49.33
2022-10-17T19:44:20.275Z,50.97
2022-10-17T19:46:49.542Z,49.73
2022-10-17T19:49:18.937Z,52.87
2022-10-17T19:51:48.024Z,103.93
2022-10-17T19:54:18.926Z,61.10
2022-10-17T19:56:48.403Z,135.82
2022-10-17T19:59:20.955Z,61.03
2022-10-17T20:01:51.179Z,50.23
2022-10-17T20:04:22.114Z,50.80
2022-10-17T20:06:50.948Z,45.33
2022-10-17T20:09:19.582Z,47.20
2022-10-17T20:11:50.668Z,45.53
2022-10-17T20:14:19.266Z,45.70
2022-10-17T20:16:50.460Z,44.47
2022-10-17T20:19:21.089Z,44.10
2022-10-17T20:21:49.923Z,41.33
2022-10-17T20:24:19.074Z,39.97
2022-10-17T20:26:48.035Z,41.73
2022-10-17T20:29:18.590Z,72.17
2022-10-17T20:31:48.575Z,49.83
2022-10-17T20:34:19.839Z,42.27
2022-10-17T20:36:49.442Z,42.27
2022-10-17T20:39:20.726Z,36.63
2022-10-17T20:41:49.486Z,39.00
2022-10-17T20:44:18.897Z,41.33
2022-10-17T20:47:01.165Z,39.10
2022-10-17T20:49:32.998Z,39.27
2022-10-17T20:52:02.385Z,39.60
2022-10-17T20:54:31.536Z,71.32
2022-10-17T20:57:03.901Z,46.00
2022-10-17T20:59:35.183Z,44.93
2022-10-17T21:02:04.525Z,44.47
2022-10-17T21:04:50.457Z,45.97
2022-10-17T21:07:19.362Z,44.50
2022-10-17T21:09:48.031Z,41.73
2022-10-17T21:12:25.946Z,71.25
2022-10-17T21:15:06.156Z,42.67
2022-10-17T21:17:34.800Z,39.50
2022-10-17T21:20:05.189Z,38.40
2022-10-17T21:22:35.220Z,37.13
2022-10-17T21:25:03.909Z,37.20
2022-10-17T21:27:32.635Z,40.70
2022-10-17T21:30:01.540Z,39.27
2022-10-17T21:32:47.329Z,41.30
2022-10-17T21:35:21.673Z,37.73
2022-10-17T21:37:50.313Z,68.07
2022-10-17T21:40:19.119Z,43.10
2022-10-17T21:42:47.794Z,39.47
2022-10-17T21:45:25.297Z,40.87
2022-10-17T21:48:12.116Z,38.17
2022-10-17T21:50:42.987Z,37.10
2022-10-17T21:53:11.726Z,37.70
2022-10-17T21:55:40.464Z,36.87
2022-10-17T21:58:14.029Z,37.70
2022-10-17T22:00:42.785Z,38.97
2022-10-17T22:03:13.003Z,38.57
2022-10-17T22:05:43.440Z,38.77
2022-10-17T22:08:12.663Z,36.83
2022-10-17T22:10:41.994Z,36.57
2022-10-17T22:13:13.680Z,39.23
2022-10-17T22:15:45.362Z,37.00
2022-10-17T22:18:14.055Z,36.37
2022-10-17T22:20:49.047Z,33.87
2022-10-17T22:23:20.167Z,34.77
2022-10-17T22:25:55.120Z,33.83
2022-10-17T22:28:23.945Z,35.03
2022-10-17T22:30:52.807Z,32.83
2022-10-17T22:35:56.444Z,35.00
2022-10-17T22:38:27.247Z,35.20
2022-10-17T22:40:57.493Z,36.10
2022-10-17T22:43:26.881Z,32.73
2022-10-17T22:45:58.572Z,33.40
2022-10-17T22:48:28.050Z,33.30
2022-10-17T22:51:00.088Z,34.97
2022-10-17T22:53:30.208Z,34.33
2022-10-17T22:56:05.252Z,34.83
2022-10-17T22:58:35.378Z,38.07
2022-10-17T23:01:04.507Z,36.90
2022-10-17T23:03:34.179Z,37.00
2022-10-17T23:06:04.471Z,35.80
2022-10-17T23:08:33.350Z,36.07
2022-10-17T23:11:04.469Z,35.33
2022-10-17T23:13:37.055Z,39.23
2022-10-17T23:16:11.068Z,40.37
2022-10-17T23:18:40.193Z,40.40
2022-10-17T23:21:14.323Z,43.30
2022-10-17T23:23:46.771Z,44.13
2022-10-17T23:26:18.599Z,43.67
2022-10-17T23:28:53.290Z,43.67
2022-10-17T23:31:23.641Z,43.60
2022-10-17T23:33:52.368Z,44.83
2022-10-17T23:36:23.357Z,44.83
2022-10-17T23:38:55.006Z,44.87
2022-10-17T23:41:28.392Z,46.73
2022-10-17T23:44:03.815Z,46.67
2022-10-17T23:46:32.743Z,45.87
2022-10-17T23:49:01.336Z,44.07
2022-10-17T23:51:31.501Z,45.17
2022-10-17T23:54:00.146Z,46.43
2022-10-17T23:56:28.882Z,46.40
2022-10-17T23:58:57.525Z,46.73
